sensor_id;sensor_type;location;lat;lon;timestamp;P1;durP1;ratioP1;P2;durP2;ratioP2
36593;SDS011;22603;47.900;8.146;2023-08-21T00:02:07;14.20;;;7.40;;
36593;SDS011;22603;47.900;8.146;2023-08-21T00:04:54;13.32;;;7.40;;
36593;SDS011;22603;47.900;8.146;2023-08-21T00:07:42;14.70;;;7.63;;
36593;SDS011;22603;47.900;8.146;2023-08-21T00:10:29;12.85;;;6.78;;
36593;SDS011;22603;47.900;8.146;2023-08-21T00:13:16;17.92;;;7.25;;
36593;SDS011;22603;47.900;8.146;2023-08-21T00:16:04;15.98;;;8.40;;
36593;SDS011;22603;47.900;8.146;2023-08-21T00:18:51;14.02;;;7.40;;
36593;SDS011;22603;47.900;8.146;2023-08-21T00:21:38;13.00;;;7.70;;
36593;SDS011;22603;47.900;8.146;2023-08-21T00:24:26;14.43;;;7.05;;
36593;SDS011;22603;47.900;8.146;2023-08-21T00:27:13;13.25;;;7.05;;
36593;SDS011;22603;47.900;8.146;2023-08-21T00:30:00;12.88;;;7.38;;
36593;SDS011;22603;47.900;8.146;2023-08-21T00:32:47;14.40;;;6.43;;
36593;SDS011;22603;47.900;8.146;2023-08-21T00:35:34;14.02;;;6.50;;
36593;SDS011;22603;47.900;8.146;2023-08-21T00:38:20;15.88;;;7.15;;
36593;SDS011;22603;47.900;8.146;2023-08-21T00:41:09;12.20;;;6.20;;
36593;SDS011;22603;47.900;8.146;2023-08-21T00:43:55;14.43;;;7.18;;
36593;SDS011;22603;47.900;8.146;2023-08-21T00:46:42;13.55;;;7.25;;
36593;SDS011;22603;47.900;8.146;2023-08-21T00:49:29;14.32;;;7.30;;
36593;SDS011;22603;47.900;8.146;2023-08-21T00:52:15;14.70;;;6.88;;
36593;SDS011;22603;47.900;8.146;2023-08-21T00:55:04;14.20;;;7.28;;
36593;SDS011;22603;47.900;8.146;2023-08-21T00:57:53;14.52;;;7.75;;
36593;SDS011;22603;47.900;8.146;2023-08-21T01:00:41;14.68;;;7.18;;
36593;SDS011;22603;47.900;8.146;2023-08-21T01:03:30;14.20;;;7.20;;
36593;SDS011;22603;47.900;8.146;2023-08-21T01:06:18;15.93;;;7.40;;
36593;SDS011;22603;47.900;8.146;2023-08-21T01:09:07;15.00;;;7.82;;
36593;SDS011;22603;47.900;8.146;2023-08-21T01:12:09;16.85;;;7.05;;
36593;SDS011;22603;47.900;8.146;2023-08-21T01:15:05;15.65;;;8.18;;
36593;SDS011;22603;47.900;8.146;2023-08-21T01:17:54;15.00;;;7.63;;
36593;SDS011;22603;47.900;8.146;2023-08-21T01:20:42;14.77;;;8.32;;
36593;SDS011;22603;47.900;8.146;2023-08-21T01:23:31;15.77;;;8.07;;
36593;SDS011;22603;47.900;8.146;2023-08-21T01:26:19;15.70;;;8.13;;
36593;SDS011;22603;47.900;8.146;2023-08-21T01:29:06;15.18;;;7.85;;
36593;SDS011;22603;47.900;8.146;2023-08-21T01:31:54;14.30;;;7.10;;
36593;SDS011;22603;47.900;8.146;2023-08-21T01:34:46;15.63;;;6.75;;
36593;SDS011;22603;47.900;8.146;2023-08-21T01:37:35;13.38;;;7.15;;
36593;SDS011;22603;47.900;8.146;2023-08-21T01:40:26;13.63;;;7.97;;
36593;SDS011;22603;47.900;8.146;2023-08-21T01:43:13;12.95;;;7.60;;
36593;SDS011;22603;47.900;8.146;2023-08-21T01:46:00;11.25;;;6.53;;
36593;SDS011;22603;47.900;8.146;2023-08-21T01:48:48;16.80;;;7.63;;
36593;SDS011;22603;47.900;8.146;2023-08-21T01:51:34;15.57;;;7.22;;
36593;SDS011;22603;47.900;8.146;2023-08-21T01:54:21;13.05;;;7.68;;
36593;SDS011;22603;47.900;8.146;2023-08-21T01:57:09;15.40;;;7.15;;
36593;SDS011;22603;47.900;8.146;2023-08-21T01:59:56;13.00;;;6.95;;
36593;SDS011;22603;47.900;8.146;2023-08-21T02:02:43;13.07;;;6.68;;
36593;SDS011;22603;47.900;8.146;2023-08-21T02:05:30;12.25;;;6.38;;
36593;SDS011;22603;47.900;8.146;2023-08-21T02:08:17;15.85;;;7.70;;
36593;SDS011;22603;47.900;8.146;2023-08-21T02:11:04;13.05;;;7.28;;
36593;SDS011;22603;47.900;8.146;2023-08-21T02:13:52;13.93;;;7.38;;
36593;SDS011;22603;47.900;8.146;2023-08-21T02:16:39;13.18;;;6.72;;
36593;SDS011;22603;47.900;8.146;2023-08-21T02:19:25;13.82;;;7.13;;
36593;SDS011;22603;47.900;8.146;2023-08-21T02:22:12;13.65;;;6.47;;
36593;SDS011;22603;47.900;8.146;2023-08-21T02:24:58;16.90;;;8.00;;
36593;SDS011;22603;47.900;8.146;2023-08-21T02:27:45;17.23;;;7.60;;
36593;SDS011;22603;47.900;8.146;2023-08-21T02:30:34;16.15;;;7.53;;
36593;SDS011;22603;47.900;8.146;2023-08-21T02:33:20;15.40;;;7.38;;
36593;SDS011;22603;47.900;8.146;2023-08-21T02:36:07;14.07;;;7.50;;
36593;SDS011;22603;47.900;8.146;2023-08-21T02:38:55;15.52;;;7.13;;
36593;SDS011;22603;47.900;8.146;2023-08-21T02:41:42;13.38;;;7.30;;
36593;SDS011;22603;47.900;8.146;2023-08-21T02:44:28;15.50;;;7.05;;
36593;SDS011;22603;47.900;8.146;2023-08-21T02:47:17;10.93;;;5.97;;
36593;SDS011;22603;47.900;8.146;2023-08-21T02:50:04;23.85;;;6.97;;
36593;SDS011;22603;47.900;8.146;2023-08-21T02:52:52;12.48;;;6.88;;
36593;SDS011;22603;47.900;8.146;2023-08-21T02:55:39;13.00;;;7.07;;
36593;SDS011;22603;47.900;8.146;2023-08-21T02:58:25;12.40;;;6.88;;
36593;SDS011;22603;47.900;8.146;2023-08-21T03:01:12;14.40;;;7.43;;
36593;SDS011;22603;47.900;8.146;2023-08-21T03:04:00;13.60;;;6.90;;
36593;SDS011;22603;47.900;8.146;2023-08-21T03:06:47;12.70;;;6.82;;
36593;SDS011;22603;47.900;8.146;2023-08-21T03:09:34;15.30;;;6.57;;
36593;SDS011;22603;47.900;8.146;2023-08-21T03:12:21;12.27;;;6.32;;
36593;SDS011;22603;47.900;8.146;2023-08-21T03:15:08;15.27;;;7.07;;
36593;SDS011;22603;47.900;8.146;2023-08-21T03:17:54;14.02;;;6.53;;
36593;SDS011;22603;47.900;8.146;2023-08-21T03:20:45;17.27;;;7.50;;
36593;SDS011;22603;47.900;8.146;2023-08-21T03:23:32;11.65;;;6.10;;
36593;SDS011;22603;47.900;8.146;2023-08-21T03:26:18;13.30;;;6.15;;
36593;SDS011;22603;47.900;8.146;2023-08-21T03:29:05;12.90;;;6.75;;
36593;SDS011;22603;47.900;8.146;2023-08-21T03:31:52;15.30;;;7.28;;
36593;SDS011;22603;47.900;8.146;2023-08-21T03:34:40;13.20;;;6.82;;
36593;SDS011;22603;47.900;8.146;2023-08-21T03:37:28;14.20;;;6.78;;
36593;SDS011;22603;47.900;8.146;2023-08-21T03:40:14;12.60;;;6.60;;
36593;SDS011;22603;47.900;8.146;2023-08-21T03:43:02;12.57;;;6.82;;
36593;SDS011;22603;47.900;8.146;2023-08-21T03:45:49;14.40;;;6.82;;
36593;SDS011;22603;47.900;8.146;2023-08-21T03:48:35;13.18;;;6.68;;
36593;SDS011;22603;47.900;8.146;2023-08-21T03:51:22;15.93;;;7.40;;
36593;SDS011;22603;47.900;8.146;2023-08-21T03:54:10;16.02;;;6.72;;
36593;SDS011;22603;47.900;8.146;2023-08-21T03:56:57;12.10;;;5.93;;
36593;SDS011;22603;47.900;8.146;2023-08-21T03:59:43;11.85;;;6.60;;
36593;SDS011;22603;47.900;8.146;2023-08-21T04:02:30;13.38;;;7.00;;
36593;SDS011;22603;47.900;8.146;2023-08-21T04:05:16;11.45;;;5.90;;
36593;SDS011;22603;47.900;8.146;2023-08-21T04:08:03;11.48;;;6.20;;
36593;SDS011;22603;47.900;8.146;2023-08-21T04:10:51;11.80;;;5.82;;
36593;SDS011;22603;47.900;8.146;2023-08-21T04:13:38;12.15;;;6.82;;
36593;SDS011;22603;47.900;8.146;2023-08-21T04:16:25;11.18;;;5.95;;
36593;SDS011;22603;47.900;8.146;2023-08-21T04:19:12;13.40;;;6.55;;
36593;SDS011;22603;47.900;8.146;2023-08-21T04:21:59;11.77;;;5.93;;
36593;SDS011;22603;47.900;8.146;2023-08-21T04:24:47;12.77;;;6.65;;
36593;SDS011;22603;47.900;8.146;2023-08-21T04:27:34;12.50;;;6.13;;
36593;SDS011;22603;47.900;8.146;2023-08-21T04:30:21;12.68;;;6.30;;
36593;SDS011;22603;47.900;8.146;2023-08-21T04:33:08;13.38;;;5.88;;
36593;SDS011;22603;47.900;8.146;2023-08-21T04:35:55;12.20;;;6.35;;
36593;SDS011;22603;47.900;8.146;2023-08-21T04:38:42;14.40;;;6.65;;
36593;SDS011;22603;47.900;8.146;2023-08-21T04:41:28;12.50;;;6.43;;
36593;SDS011;22603;47.900;8.146;2023-08-21T04:44:16;14.32;;;7.35;;
36593;SDS011;22603;47.900;8.146;2023-08-21T04:47:18;12.27;;;6.78;;
36593;SDS011;22603;47.900;8.146;2023-08-21T04:50:06;13.05;;;6.38;;
36593;SDS011;22603;47.900;8.146;2023-08-21T04:52:53;13.82;;;6.32;;
36593;SDS011;22603;47.900;8.146;2023-08-21T04:55:40;15.27;;;6.18;;
36593;SDS011;22603;47.900;8.146;2023-08-21T04:58:27;15.77;;;6.32;;
36593;SDS011;22603;47.900;8.146;2023-08-21T05:01:15;13.88;;;6.70;;
36593;SDS011;22603;47.900;8.146;2023-08-21T05:04:02;11.93;;;5.90;;
36593;SDS011;22603;47.900;8.146;2023-08-21T05:06:49;13.00;;;6.32;;
36593;SDS011;22603;47.900;8.146;2023-08-21T05:09:35;12.57;;;6.72;;
36593;SDS011;22603;47.900;8.146;2023-08-21T05:12:22;11.90;;;6.43;;
36593;SDS011;22603;47.900;8.146;2023-08-21T05:15:10;14.45;;;6.30;;
36593;SDS011;22603;47.900;8.146;2023-08-21T05:17:58;14.60;;;6.63;;
36593;SDS011;22603;47.900;8.146;2023-08-21T05:20:46;14.02;;;6.00;;
36593;SDS011;22603;47.900;8.146;2023-08-21T05:23:32;11.23;;;5.93;;
36593;SDS011;22603;47.900;8.146;2023-08-21T05:26:19;13.30;;;5.97;;
36593;SDS011;22603;47.900;8.146;2023-08-21T05:29:06;13.70;;;6.32;;
36593;SDS011;22603;47.900;8.146;2023-08-21T05:31:53;13.02;;;6.50;;
36593;SDS011;22603;47.900;8.146;2023-08-21T05:34:41;11.85;;;6.00;;
36593;SDS011;22603;47.900;8.146;2023-08-21T05:37:28;10.43;;;5.68;;
36593;SDS011;22603;47.900;8.146;2023-08-21T05:40:15;10.60;;;6.13;;
36593;SDS011;22603;47.900;8.146;2023-08-21T05:43:02;12.30;;;6.38;;
36593;SDS011;22603;47.900;8.146;2023-08-21T05:45:49;12.65;;;6.82;;
36593;SDS011;22603;47.900;8.146;2023-08-21T05:48:36;11.48;;;6.78;;
36593;SDS011;22603;47.900;8.146;2023-08-21T05:51:24;13.15;;;7.13;;
36593;SDS011;22603;47.900;8.146;2023-08-21T05:54:10;15.10;;;7.40;;
36593;SDS011;22603;47.900;8.146;2023-08-21T05:56:57;14.10;;;7.72;;
36593;SDS011;22603;47.900;8.146;2023-08-21T05:59:44;14.88;;;7.55;;
36593;SDS011;22603;47.900;8.146;2023-08-21T06:02:31;14.15;;;8.18;;
36593;SDS011;22603;47.900;8.146;2023-08-21T06:05:18;17.00;;;8.13;;
36593;SDS011;22603;47.900;8.146;2023-08-21T06:08:06;16.60;;;8.52;;
36593;SDS011;22603;47.900;8.146;2023-08-21T06:10:53;15.27;;;8.23;;
36593;SDS011;22603;47.900;8.146;2023-08-21T06:13:40;18.83;;;8.23;;
36593;SDS011;22603;47.900;8.146;2023-08-21T06:16:27;16.95;;;7.82;;
36593;SDS011;22603;47.900;8.146;2023-08-21T06:19:13;17.17;;;8.80;;
36593;SDS011;22603;47.900;8.146;2023-08-21T06:22:00;16.05;;;8.85;;
36593;SDS011;22603;47.900;8.146;2023-08-21T06:24:48;18.65;;;7.32;;
36593;SDS011;22603;47.900;8.146;2023-08-21T06:27:35;20.48;;;7.40;;
36593;SDS011;22603;47.900;8.146;2023-08-21T06:30:40;13.80;;;6.70;;
36593;SDS011;22603;47.900;8.146;2023-08-21T06:33:26;13.18;;;7.13;;
36593;SDS011;22603;47.900;8.146;2023-08-21T06:36:18;13.63;;;6.88;;
36593;SDS011;22603;47.900;8.146;2023-08-21T06:39:05;15.27;;;7.60;;
36593;SDS011;22603;47.900;8.146;2023-08-21T06:41:56;14.48;;;7.40;;
36593;SDS011;22603;47.900;8.146;2023-08-21T06:44:43;14.27;;;7.70;;
36593;SDS011;22603;47.900;8.146;2023-08-21T06:47:30;13.40;;;7.10;;
36593;SDS011;22603;47.900;8.146;2023-08-21T06:50:17;12.30;;;6.63;;
36593;SDS011;22603;47.900;8.146;2023-08-21T06:53:04;12.65;;;6.72;;
36593;SDS011;22603;47.900;8.146;2023-08-21T06:55:51;11.90;;;6.18;;
36593;SDS011;22603;47.900;8.146;2023-08-21T06:58:39;12.00;;;6.18;;
36593;SDS011;22603;47.900;8.146;2023-08-21T07:01:25;12.43;;;6.47;;
36593;SDS011;22603;47.900;8.146;2023-08-21T07:04:12;17.80;;;6.88;;
36593;SDS011;22603;47.900;8.146;2023-08-21T07:06:59;14.55;;;6.57;;
36593;SDS011;22603;47.900;8.146;2023-08-21T07:09:46;12.63;;;6.53;;
36593;SDS011;22603;47.900;8.146;2023-08-21T07:12:33;13.68;;;6.28;;
36593;SDS011;22603;47.900;8.146;2023-08-21T07:15:21;14.95;;;6.57;;
36593;SDS011;22603;47.900;8.146;2023-08-21T07:18:08;14.38;;;6.68;;
36593;SDS011;22603;47.900;8.146;2023-08-21T07:20:54;11.18;;;6.28;;
36593;SDS011;22603;47.900;8.146;2023-08-21T07:23:41;11.20;;;6.18;;
36593;SDS011;22603;47.900;8.146;2023-08-21T07:26:28;14.15;;;6.22;;
36593;SDS011;22603;47.900;8.146;2023-08-21T07:29:14;11.23;;;6.47;;
36593;SDS011;22603;47.900;8.146;2023-08-21T07:32:02;11.07;;;6.00;;
36593;SDS011;22603;47.900;8.146;2023-08-21T07:34:51;10.38;;;6.18;;
36593;SDS011;22603;47.900;8.146;2023-08-21T07:37:39;11.73;;;6.28;;
36593;SDS011;22603;47.900;8.146;2023-08-21T07:40:29;12.93;;;5.80;;
36593;SDS011;22603;47.900;8.146;2023-08-21T07:43:16;12.57;;;6.85;;
36593;SDS011;22603;47.900;8.146;2023-08-21T07:46:02;9.48;;;5.70;;
36593;SDS011;22603;47.900;8.146;2023-08-21T07:48:52;12.98;;;5.88;;
36593;SDS011;22603;47.900;8.146;2023-08-21T07:51:40;11.75;;;6.00;;
36593;SDS011;22603;47.900;8.146;2023-08-21T07:54:27;13.55;;;6.28;;
36593;SDS011;22603;47.900;8.146;2023-08-21T07:57:13;16.70;;;6.18;;
36593;SDS011;22603;47.900;8.146;2023-08-21T08:00:00;14.38;;;6.05;;
36593;SDS011;22603;47.900;8.146;2023-08-21T08:02:46;12.60;;;6.50;;
36593;SDS011;22603;47.900;8.146;2023-08-21T08:05:34;12.73;;;5.97;;
36593;SDS011;22603;47.900;8.146;2023-08-21T08:08:22;13.95;;;6.20;;
36593;SDS011;22603;47.900;8.146;2023-08-21T08:11:08;11.45;;;5.93;;
36593;SDS011;22603;47.900;8.146;2023-08-21T08:13:59;17.35;;;6.00;;
36593;SDS011;22603;47.900;8.146;2023-08-21T08:16:45;15.07;;;5.68;;
36593;SDS011;22603;47.900;8.146;2023-08-21T08:19:32;10.40;;;5.55;;
36593;SDS011;22603;47.900;8.146;2023-08-21T08:22:20;15.52;;;5.72;;
36593;SDS011;22603;47.900;8.146;2023-08-21T08:25:07;12.35;;;6.25;;
36593;SDS011;22603;47.900;8.146;2023-08-21T08:27:55;10.18;;;5.38;;
36593;SDS011;22603;47.900;8.146;2023-08-21T08:30:42;11.05;;;5.60;;
36593;SDS011;22603;47.900;8.146;2023-08-21T08:33:28;13.63;;;6.32;;
36593;SDS011;22603;47.900;8.146;2023-08-21T08:36:15;12.18;;;5.90;;
36593;SDS011;22603;47.900;8.146;2023-08-21T08:39:04;9.73;;;5.55;;
36593;SDS011;22603;47.900;8.146;2023-08-21T08:41:54;9.82;;;5.63;;
36593;SDS011;22603;47.900;8.146;2023-08-21T08:44:45;12.43;;;6.00;;
36593;SDS011;22603;47.900;8.146;2023-08-21T08:47:33;14.98;;;5.10;;
36593;SDS011;22603;47.900;8.146;2023-08-21T08:50:20;9.23;;;5.03;;
36593;SDS011;22603;47.900;8.146;2023-08-21T08:53:08;9.25;;;5.15;;
36593;SDS011;22603;47.900;8.146;2023-08-21T08:56:03;9.93;;;5.50;;
36593;SDS011;22603;47.900;8.146;2023-08-21T08:58:49;14.90;;;4.95;;
36593;SDS011;22603;47.900;8.146;2023-08-21T09:01:36;13.15;;;5.90;;
36593;SDS011;22603;47.900;8.146;2023-08-21T09:04:23;14.85;;;5.63;;
36593;SDS011;22603;47.900;8.146;2023-08-21T09:07:10;13.23;;;5.50;;
36593;SDS011;22603;47.900;8.146;2023-08-21T09:09:57;11.05;;;5.22;;
36593;SDS011;22603;47.900;8.146;2023-08-21T09:12:46;13.18;;;4.88;;
36593;SDS011;22603;47.900;8.146;2023-08-21T09:15:33;9.88;;;5.15;;
36593;SDS011;22603;47.900;8.146;2023-08-21T09:18:26;13.20;;;4.38;;
36593;SDS011;22603;47.900;8.146;2023-08-21T09:21:15;12.38;;;5.13;;
36593;SDS011;22603;47.900;8.146;2023-08-21T09:24:02;10.20;;;4.88;;
36593;SDS011;22603;47.900;8.146;2023-08-21T09:26:49;12.73;;;5.68;;
36593;SDS011;22603;47.900;8.146;2023-08-21T09:29:40;9.32;;;4.18;;
36593;SDS011;22603;47.900;8.146;2023-08-21T09:32:27;14.57;;;4.90;;
36593;SDS011;22603;47.900;8.146;2023-08-21T09:35:14;8.25;;;4.55;;
36593;SDS011;22603;47.900;8.146;2023-08-21T09:38:01;9.77;;;4.50;;
36593;SDS011;22603;47.900;8.146;2023-08-21T09:40:50;9.40;;;4.57;;
36593;SDS011;22603;47.900;8.146;2023-08-21T09:43:40;12.00;;;5.00;;
36593;SDS011;22603;47.900;8.146;2023-08-21T09:46:30;10.75;;;5.20;;
36593;SDS011;22603;47.900;8.146;2023-08-21T09:49:17;10.48;;;4.82;;
36593;SDS011;22603;47.900;8.146;2023-08-21T09:52:07;9.07;;;4.93;;
36593;SDS011;22603;47.900;8.146;2023-08-21T09:54:56;12.88;;;5.05;;
36593;SDS011;22603;47.900;8.146;2023-08-21T09:57:43;11.52;;;4.70;;
36593;SDS011;22603;47.900;8.146;2023-08-21T10:00:35;10.77;;;5.10;;
36593;SDS011;22603;47.900;8.146;2023-08-21T10:03:24;11.20;;;4.93;;
36593;SDS011;22603;47.900;8.146;2023-08-21T10:06:13;10.35;;;5.35;;
36593;SDS011;22603;47.900;8.146;2023-08-21T10:09:07;14.77;;;5.20;;
36593;SDS011;22603;47.900;8.146;2023-08-21T10:11:55;11.93;;;4.72;;
36593;SDS011;22603;47.900;8.146;2023-08-21T10:14:43;9.25;;;4.68;;
36593;SDS011;22603;47.900;8.146;2023-08-21T10:17:30;10.63;;;4.95;;
36593;SDS011;22603;47.900;8.146;2023-08-21T10:20:21;10.95;;;5.20;;
36593;SDS011;22603;47.900;8.146;2023-08-21T10:23:10;10.45;;;5.03;;
36593;SDS011;22603;47.900;8.146;2023-08-21T10:26:10;11.60;;;5.03;;
36593;SDS011;22603;47.900;8.146;2023-08-21T10:28:58;10.40;;;5.15;;
36593;SDS011;22603;47.900;8.146;2023-08-21T10:31:47;14.77;;;5.30;;
36593;SDS011;22603;47.900;8.146;2023-08-21T10:34:50;11.07;;;5.50;;
36593;SDS011;22603;47.900;8.146;2023-08-21T10:37:51;8.05;;;4.85;;
36593;SDS011;22603;47.900;8.146;2023-08-21T10:41:05;10.95;;;4.85;;
36593;SDS011;22603;47.900;8.146;2023-08-21T10:43:53;9.68;;;4.72;;
36593;SDS011;22603;47.900;8.146;2023-08-21T10:46:49;12.77;;;5.03;;
36593;SDS011;22603;47.900;8.146;2023-08-21T10:49:36;11.85;;;5.60;;
36593;SDS011;22603;47.900;8.146;2023-08-21T10:52:24;12.57;;;5.13;;
36593;SDS011;22603;47.900;8.146;2023-08-21T10:55:14;8.30;;;4.45;;
36593;SDS011;22603;47.900;8.146;2023-08-21T10:58:03;14.13;;;5.07;;
36593;SDS011;22603;47.900;8.146;2023-08-21T11:00:55;9.98;;;4.88;;
36593;SDS011;22603;47.900;8.146;2023-08-21T11:03:45;10.30;;;5.10;;
36593;SDS011;22603;47.900;8.146;2023-08-21T11:06:32;10.05;;;5.68;;
36593;SDS011;22603;47.900;8.146;2023-08-21T11:09:19;16.30;;;5.10;;
36593;SDS011;22603;47.900;8.146;2023-08-21T11:12:08;11.95;;;5.88;;
36593;SDS011;22603;47.900;8.146;2023-08-21T11:14:57;10.27;;;5.32;;
36593;SDS011;22603;47.900;8.146;2023-08-21T11:17:50;13.63;;;5.43;;
36593;SDS011;22603;47.900;8.146;2023-08-21T11:20:39;10.70;;;5.70;;
36593;SDS011;22603;47.900;8.146;2023-08-21T11:23:31;11.02;;;5.30;;
36593;SDS011;22603;47.900;8.146;2023-08-21T11:26:18;11.35;;;5.78;;
36593;SDS011;22603;47.900;8.146;2023-08-21T11:29:08;10.70;;;5.28;;
36593;SDS011;22603;47.900;8.146;2023-08-21T11:31:55;10.40;;;5.25;;
36593;SDS011;22603;47.900;8.146;2023-08-21T11:34:41;10.43;;;5.22;;
36593;SDS011;22603;47.900;8.146;2023-08-21T11:37:29;13.68;;;5.70;;
36593;SDS011;22603;47.900;8.146;2023-08-21T11:40:16;9.18;;;4.88;;
36593;SDS011;22603;47.900;8.146;2023-08-21T11:43:02;15.65;;;5.40;;
36593;SDS011;22603;47.900;8.146;2023-08-21T11:45:52;10.88;;;5.47;;
36593;SDS011;22603;47.900;8.146;2023-08-21T11:48:43;11.48;;;5.30;;
36593;SDS011;22603;47.900;8.146;2023-08-21T11:51:37;11.40;;;5.28;;
36593;SDS011;22603;47.900;8.146;2023-08-21T11:54:24;11.90;;;5.90;;
36593;SDS011;22603;47.900;8.146;2023-08-21T11:57:11;13.52;;;6.00;;
36593;SDS011;22603;47.900;8.146;2023-08-21T11:59:59;13.23;;;6.00;;
36593;SDS011;22603;47.900;8.146;2023-08-21T12:02:56;10.73;;;5.10;;
36593;SDS011;22603;47.900;8.146;2023-08-21T12:05:44;11.30;;;5.47;;
36593;SDS011;22603;47.900;8.146;2023-08-21T12:08:32;12.73;;;5.22;;
36593;SDS011;22603;47.900;8.146;2023-08-21T12:11:19;9.90;;;5.68;;
36593;SDS011;22603;47.900;8.146;2023-08-21T12:14:07;10.25;;;5.70;;
36593;SDS011;22603;47.900;8.146;2023-08-21T12:16:53;10.80;;;5.70;;
36593;SDS011;22603;47.900;8.146;2023-08-21T12:19:42;12.43;;;5.93;;
36593;SDS011;22603;47.900;8.146;2023-08-21T12:22:29;10.40;;;5.60;;
36593;SDS011;22603;47.900;8.146;2023-08-21T12:25:15;9.77;;;5.43;;
36593;SDS011;22603;47.900;8.146;2023-08-21T12:28:03;11.13;;;5.63;;
36593;SDS011;22603;47.900;8.146;2023-08-21T12:30:54;11.05;;;5.38;;
36593;SDS011;22603;47.900;8.146;2023-08-21T12:33:41;10.93;;;5.65;;
36593;SDS011;22603;47.900;8.146;2023-08-21T12:36:29;11.60;;;5.65;;
36593;SDS011;22603;47.900;8.146;2023-08-21T12:39:16;12.77;;;5.72;;
36593;SDS011;22603;47.900;8.146;2023-08-21T12:42:03;10.52;;;5.28;;
36593;SDS011;22603;47.900;8.146;2023-08-21T12:44:50;11.05;;;5.35;;
36593;SDS011;22603;47.900;8.146;2023-08-21T12:47:37;11.00;;;5.75;;
36593;SDS011;22603;47.900;8.146;2023-08-21T12:50:24;10.45;;;5.93;;
36593;SDS011;22603;47.900;8.146;2023-08-21T12:53:12;10.40;;;5.57;;
36593;SDS011;22603;47.900;8.146;2023-08-21T12:55:59;11.77;;;5.25;;
36593;SDS011;22603;47.900;8.146;2023-08-21T12:58:46;10.73;;;5.28;;
36593;SDS011;22603;47.900;8.146;2023-08-21T13:01:33;12.40;;;5.13;;
36593;SDS011;22603;47.900;8.146;2023-08-21T13:04:23;10.30;;;5.15;;
36593;SDS011;22603;47.900;8.146;2023-08-21T13:07:10;10.82;;;5.28;;
36593;SDS011;22603;47.900;8.146;2023-08-21T13:09:58;12.23;;;5.45;;
36593;SDS011;22603;47.900;8.146;2023-08-21T13:12:46;10.70;;;5.32;;
36593;SDS011;22603;47.900;8.146;2023-08-21T13:15:33;10.25;;;5.28;;
36593;SDS011;22603;47.900;8.146;2023-08-21T13:18:20;10.35;;;4.90;;
36593;SDS011;22603;47.900;8.146;2023-08-21T13:21:07;11.10;;;5.22;;
36593;SDS011;22603;47.900;8.146;2023-08-21T13:23:54;10.07;;;5.47;;
36593;SDS011;22603;47.900;8.146;2023-08-21T13:26:42;10.73;;;5.00;;
36593;SDS011;22603;47.900;8.146;2023-08-21T13:29:29;12.10;;;5.15;;
36593;SDS011;22603;47.900;8.146;2023-08-21T13:32:16;9.55;;;5.00;;
36593;SDS011;22603;47.900;8.146;2023-08-21T13:35:02;14.13;;;5.55;;
36593;SDS011;22603;47.900;8.146;2023-08-21T13:37:52;14.40;;;5.10;;
36593;SDS011;22603;47.900;8.146;2023-08-21T13:40:38;11.13;;;5.28;;
36593;SDS011;22603;47.900;8.146;2023-08-21T13:43:29;9.05;;;4.80;;
36593;SDS011;22603;47.900;8.146;2023-08-21T13:46:19;11.63;;;5.10;;
36593;SDS011;22603;47.900;8.146;2023-08-21T13:49:06;10.32;;;5.18;;
36593;SDS011;22603;47.900;8.146;2023-08-21T13:51:53;11.85;;;4.85;;
36593;SDS011;22603;47.900;8.146;2023-08-21T13:54:40;14.45;;;5.25;;
36593;SDS011;22603;47.900;8.146;2023-08-21T13:57:26;9.13;;;4.38;;
36593;SDS011;22603;47.900;8.146;2023-08-21T14:00:15;10.18;;;5.13;;
36593;SDS011;22603;47.900;8.146;2023-08-21T14:03:03;9.48;;;4.90;;
36593;SDS011;22603;47.900;8.146;2023-08-21T14:05:50;10.68;;;5.40;;
36593;SDS011;22603;47.900;8.146;2023-08-21T14:08:37;11.85;;;6.25;;
36593;SDS011;22603;47.900;8.146;2023-08-21T14:11:24;9.32;;;5.00;;
36593;SDS011;22603;47.900;8.146;2023-08-21T14:14:11;13.07;;;5.70;;
36593;SDS011;22603;47.900;8.146;2023-08-21T14:16:59;10.52;;;5.57;;
36593;SDS011;22603;47.900;8.146;2023-08-21T14:19:46;11.98;;;5.50;;
36593;SDS011;22603;47.900;8.146;2023-08-21T14:22:33;11.88;;;5.15;;
36593;SDS011;22603;47.900;8.146;2023-08-21T14:25:19;10.68;;;5.28;;
36593;SDS011;22603;47.900;8.146;2023-08-21T14:28:06;12.80;;;5.35;;
36593;SDS011;22603;47.900;8.146;2023-08-21T14:30:53;11.35;;;5.07;;
36593;SDS011;22603;47.900;8.146;2023-08-21T14:33:42;11.07;;;5.07;;
36593;SDS011;22603;47.900;8.146;2023-08-21T14:36:30;15.30;;;5.40;;
36593;SDS011;22603;47.900;8.146;2023-08-21T14:39:16;8.50;;;4.55;;
36593;SDS011;22603;47.900;8.146;2023-08-21T14:42:04;9.45;;;4.68;;
36593;SDS011;22603;47.900;8.146;2023-08-21T14:44:51;15.98;;;5.35;;
36593;SDS011;22603;47.900;8.146;2023-08-21T14:47:38;10.07;;;4.70;;
36593;SDS011;22603;47.900;8.146;2023-08-21T14:50:56;9.32;;;4.60;;
36593;SDS011;22603;47.900;8.146;2023-08-21T14:53:43;8.45;;;4.53;;
36593;SDS011;22603;47.900;8.146;2023-08-21T14:56:29;11.02;;;5.10;;
36593;SDS011;22603;47.900;8.146;2023-08-21T14:59:16;9.85;;;4.85;;
36593;SDS011;22603;47.900;8.146;2023-08-21T15:02:03;9.30;;;4.72;;
36593;SDS011;22603;47.900;8.146;2023-08-21T15:04:52;9.75;;;5.05;;
36593;SDS011;22603;47.900;8.146;2023-08-21T15:07:40;11.43;;;5.07;;
36593;SDS011;22603;47.900;8.146;2023-08-21T15:10:27;13.32;;;5.07;;
36593;SDS011;22603;47.900;8.146;2023-08-21T15:13:14;10.73;;;4.75;;
36593;SDS011;22603;47.900;8.146;2023-08-21T15:16:00;9.82;;;4.78;;
36593;SDS011;22603;47.900;8.146;2023-08-21T15:18:47;9.10;;;4.70;;
36593;SDS011;22603;47.900;8.146;2023-08-21T15:21:37;9.50;;;4.82;;
36593;SDS011;22603;47.900;8.146;2023-08-21T15:24:28;12.32;;;4.18;;
36593;SDS011;22603;47.900;8.146;2023-08-21T15:27:15;8.77;;;4.93;;
36593;SDS011;22603;47.900;8.146;2023-08-21T15:30:02;8.90;;;4.45;;
36593;SDS011;22603;47.900;8.146;2023-08-21T15:32:50;11.43;;;4.80;;
36593;SDS011;22603;47.900;8.146;2023-08-21T15:35:36;10.13;;;4.32;;
36593;SDS011;22603;47.900;8.146;2023-08-21T15:38:23;8.80;;;4.40;;
36593;SDS011;22603;47.900;8.146;2023-08-21T15:41:14;10.20;;;4.43;;
36593;SDS011;22603;47.900;8.146;2023-08-21T15:44:00;9.23;;;4.38;;
36593;SDS011;22603;47.900;8.146;2023-08-21T15:46:47;8.70;;;4.30;;
36593;SDS011;22603;47.900;8.146;2023-08-21T15:49:35;11.15;;;4.75;;
36593;SDS011;22603;47.900;8.146;2023-08-21T15:52:23;11.93;;;4.60;;
36593;SDS011;22603;47.900;8.146;2023-08-21T15:55:09;9.25;;;4.10;;
36593;SDS011;22603;47.900;8.146;2023-08-21T15:57:58;13.18;;;4.50;;
36593;SDS011;22603;47.900;8.146;2023-08-21T16:00:45;11.10;;;4.65;;
36593;SDS011;22603;47.900;8.146;2023-08-21T16:03:32;12.15;;;4.50;;
36593;SDS011;22603;47.900;8.146;2023-08-21T16:06:19;10.68;;;4.25;;
36593;SDS011;22603;47.900;8.146;2023-08-21T16:09:05;10.18;;;4.07;;
36593;SDS011;22603;47.900;8.146;2023-08-21T16:11:54;10.32;;;4.20;;
36593;SDS011;22603;47.900;8.146;2023-08-21T16:14:42;9.90;;;3.75;;
36593;SDS011;22603;47.900;8.146;2023-08-21T16:17:29;11.10;;;4.00;;
36593;SDS011;22603;47.900;8.146;2023-08-21T16:20:16;7.63;;;3.55;;
36593;SDS011;22603;47.900;8.146;2023-08-21T16:23:04;12.00;;;3.90;;
36593;SDS011;22603;47.900;8.146;2023-08-21T16:25:51;12.50;;;4.25;;
36593;SDS011;22603;47.900;8.146;2023-08-21T16:28:38;10.15;;;4.10;;
36593;SDS011;22603;47.900;8.146;2023-08-21T16:31:26;20.58;;;3.90;;
36593;SDS011;22603;47.900;8.146;2023-08-21T16:34:13;10.38;;;4.30;;
36593;SDS011;22603;47.900;8.146;2023-08-21T16:37:00;9.93;;;4.28;;
36593;SDS011;22603;47.900;8.146;2023-08-21T16:39:47;8.02;;;3.88;;